Hauptseite
METAR-TAF:

METAR-TAF

Flughäfen :

Flughafen Gran Canaria

Gran Canaria, Spanien

Breite: 27-56N, Länge: 015-23W, Höhe: 23 m

Beobachtung

Neuester Wetterbericht von vor 13 Minuten, um 04:00 UTC
Wind 15 kt aus Nord
Temperatur 20°C
Luftfeuchtigkeit 73%
Luftdruck 1017 hPa
Sichtweite 10 km oder mehr
Aufgelockert bewölkt in der Höhe von 2400 ft

METAR: GCLP 230400Z 01015KT 9999 SCT024 20/15 Q1017 NOSIG

Zeit: 05:13 (04:13 UTC)

Prognose

Neuester Wetterbericht von vor 2 Stunden und 13 Minuten, um 02:00 UTC
Gültige Prognose vom 23 um 03 UTC bis 24 um 03 UTC
Wind 18 kt aus Nord
Sichtweite 10 km oder mehr
Durchbrochene Bewölkung in der Höhe von 2500 ft
Wahrscheinlichkeit 30% :
Zeitweise
vom 23 um 13 UTC bis 23 um 18 UTC
Wind 20 kt aus Nord, Böen bis zu 30 kt

TAF: GCLP 230200Z 2303/2403 36018KT 9999 BKN025 TX26/2315Z TN20/2305Z PROB30 TEMPO 2313/2318 01020G30KT

Wetterbeobachtungen und Prognosen von mehr als 4000 Flughäfen (METAR und TAF Bericht).

Die verfügbaren Stationen werden durch gelbe und rote Markierungen auf der Karte dargestellt.

Führen Sie die Maus auf sie, um den Namen der Station zu sehen.

Darauf klicken, um die Beobachtung von Wetterbeobachtungen und Prognosen zu sehen.

Um die Karte zu ändern : klicken Sie auf den grünen Tasten mit einem schwarzen Kreuz Zum Vergrößern, auf den grünen Button mit einem Gedankenstrich zu verkleinern, oder auf die grünen Pfeile für benachbarte Karten.


METAR-TAF: